Atwood, Tennessee
Current Conditions -  °F | °C
As of 3:53 AM on Wednesday 22 Oct 2014 (Local Time) from KMKL Reporting Station
Clear Clear  
Wind Chill: 46°   Ceiling: Unl
Heat Index: 46°   Visibility: 10mi
Dew Point: 41°   Wind: 0mph
Humidity: 83%   Direction: NA
Pressure: 30.16"   Gusts: NA
Location:  35.97°N, 88.68°W
Report Text: KMKL 220853Z AUTO 00000KT 10SM CLR 08/05 A3016 RMK AO2 SLP211 T00780050 53012
Loading
Personal Weather Stations






























Interactive Weather Map
Tropical Storm Tracking
New forecast layout! Learn more

10-Day Weather Forecast

Advertisements
Track Severe Weather on mobile